WetterOnline ( https://www.wetteronline.de )

Wetter aktuell Bismark (Altmark)

Aktuelles Wetter: Gardelegen (48m)

6-stündlich | Neueste Meldungen
Ortszeit Temperatur Wetter
Do, 25.07. 8:00 12.8° C leicht bewölkt
Do, 25.07. 2:00 10.5° C wolkenlos
Mi, 24.07. 20:00 20.2° C wolkig
Mi, 24.07. 14:00 20.6° C bewölkt
Mi, 24.07. 8:00 17.2° C bedeckt
Mi, 24.07. 2:00 15.8° C bewölkt
Di, 23.07. 20:00 19.9° C wolkig
Di, 23.07. 14:00 26.4° C leicht bewölkt
Ortszeit Temperatur Wetter
Do, 25.07. 12:30 20.1° C leicht bewölkt
Do, 25.07. 12:20 20.1° C leicht bewölkt
Do, 25.07. 12:10 20.8° C leicht bewölkt
Do, 25.07. 12:00 19.7° C wolkig
Do, 25.07. 11:50 19.7° C wolkig
Do, 25.07. 11:40 19.7° C wolkig
Do, 25.07. 11:30 19.4° C wolkig
Do, 25.07. 11:00 18.7° C leicht bewölkt
Do, 25.07. 10:30 17.8° C leicht bewölkt
Do, 25.07. 10:00 17.1° C fast wolkenlos
Do, 25.07. 9:30 16.4° C leicht bewölkt
Ortszeit Relative Feuchte Sichtweite
Do, 25.07. 8:00 90% 35 km
Do, 25.07. 2:00 97% 12 km
Mi, 24.07. 20:00 59% 50 km
Mi, 24.07. 14:00 61% 60 km
Mi, 24.07. 8:00 92% 20 km
Mi, 24.07. 2:00 96% 35 km
Di, 23.07. 20:00 85% 55 km
Di, 23.07. 14:00 47% >70 km
Ortszeit Relative Feuchte Sichtweite
Do, 25.07. 12:30 55% 65 km
Do, 25.07. 12:20 55% -
Do, 25.07. 12:10 57% -
Do, 25.07. 12:00 59% 45 km
Do, 25.07. 11:50 59% -
Do, 25.07. 11:40 60% -
Do, 25.07. 11:30 60% 45 km
Do, 25.07. 11:00 63% >70 km
Do, 25.07. 10:30 65% 40 km
Do, 25.07. 10:00 63% 50 km
Do, 25.07. 9:30 68% 50 km
Ortszeit Niederschlagsmenge Niederschlagsart
Do, 25.07. 8:00 0.0 l/m2 in 12 Std. -
Do, 25.07. 2:00 0.0 l/m2 in 6 Std. -
Mi, 24.07. 20:00 0.1 l/m2 in 12 Std. Regen
Mi, 24.07. 14:00 0.1 l/m2 in 6 Std. Regen
Mi, 24.07. 8:00 0.6 l/m2 in 12 Std. Regen
Mi, 24.07. 2:00 0.6 l/m2 in 6 Std. Regen
Di, 23.07. 20:00 9 l/m2 in 12 Std. Regen
Di, 23.07. 14:00 0.0 l/m2 in 6 Std. -
Ortszeit Niederschlagsmenge Niederschlagsart
Do, 25.07. 12:30 0.0 l/m2 in 30 Min -
Do, 25.07. 12:20 keine Meldung -
Do, 25.07. 12:10 keine Meldung -
Do, 25.07. 12:00 0.0 l/m2 in 1 Std. -
Do, 25.07. 11:50 keine Meldung -
Do, 25.07. 11:40 keine Meldung -
Do, 25.07. 11:30 0.0 l/m2 in 30 Min -
Do, 25.07. 11:00 0.0 l/m2 in 1 Std. -
Do, 25.07. 10:30 0.0 l/m2 in 30 Min -
Do, 25.07. 10:00 0.0 l/m2 in 1 Std. -
Do, 25.07. 9:30 0.0 l/m2 in 30 Min -
Ortszeit Stärke Spitze Richtung
km/h Bft. km/h Grad Sektor
Do, 25.07. 8:00 4 1 7 240° SW
Do, 25.07. 2:00 4 1 18 190° S
Mi, 24.07. 20:00 9 2 33 320° NW
Mi, 24.07. 14:00 14 3 29 310° NW
Mi, 24.07. 8:00 7 2 19 280° W
Mi, 24.07. 2:00 4 1 11 230° SW
Di, 23.07. 20:00 4 1 36 240° SW
Di, 23.07. 14:00 9 2 31 240° SW
Ortszeit Stärke Spitze Richtung
km/h Bft. km/h Grad Sektor
Do, 25.07. 12:30 9 2 22 250° W
Do, 25.07. 12:20 9 2 - 250° W
Do, 25.07. 12:10 7 2 - 240° SW
Do, 25.07. 12:00 11 2 22 240° SW
Do, 25.07. 11:50 11 2 - 240° SW
Do, 25.07. 11:40 11 2 - 220° SW
Do, 25.07. 11:30 13 3 22 250° W
Do, 25.07. 11:00 9 2 19 240° SW
Do, 25.07. 10:30 9 2 19 260° W
Do, 25.07. 10:00 7 2 11 270° W
Do, 25.07. 9:30 6 1 9 260° W
Ortszeit Untergrenze Bedeckung Gattung
total tief tief mittel hoch
Do, 25.07. 8:00 900 m 3/8 3/8 - - -
Do, 25.07. 2:00 - 0/8 0/8 - - -
Mi, 24.07. 20:00 1380 m 8/8 2/8 - - -
Mi, 24.07. 14:00 1050 m 7/8 7/8 - - -
Mi, 24.07. 8:00 390 m 8/8 8/8 - - -
Mi, 24.07. 2:00 3000 m 7/8 7/8 - - -
Di, 23.07. 20:00 390 m 7/8 1/8 - - -
Di, 23.07. 14:00 1500 m 2/8 2/8 - - -
Ortszeit Bedeckungsgrad in Achtel und Wolkenuntergrenze
Do, 25.07. 12:30 3(1050m) 5(8700m)
Do, 25.07. 12:20 3(1050m) 5(8700m)
Do, 25.07. 12:10 4
Do, 25.07. 12:00 4(990m) 5(10500m) 5(10500m)
Do, 25.07. 11:50 4(990m) 5(10500m) 5(10500m)
Do, 25.07. 11:40 6
Do, 25.07. 11:30 3(930m) 6(10500m)
Do, 25.07. 11:00 1(870m) 3(10500m)
Do, 25.07. 10:30 1(960m) 3(10500m)
Do, 25.07. 10:00 1(930m)
Do, 25.07. 9:30 3(870m)
Ortszeit Luftdruck NN (hPa) Tendenz (hPa in 3 Std.)
Do, 25.07. 8:00 1018 - 0,2
Do, 25.07. 2:00 1019 + 0,4
Mi, 24.07. 20:00 1018 - 0,3
Mi, 24.07. 14:00 1018 + 0,1
Mi, 24.07. 8:00 1017 + 0,8
Mi, 24.07. 2:00 1016 + 0,8
Di, 23.07. 20:00 1015 0,0
Di, 23.07. 14:00 1015 - 1,6
Ortszeit Luftdruck NN (hPa) Tendenz (hPa in 3 Std.)
Do, 25.07. 12:30 1016 - 1,2
Do, 25.07. 12:20 1016 keine Meldung
Do, 25.07. 12:10 1016 keine Meldung
Do, 25.07. 12:00 1017 - 0,9
Do, 25.07. 11:50 1017 keine Meldung
Do, 25.07. 11:40 1017 keine Meldung
Do, 25.07. 11:30 1017 - 0,8
Do, 25.07. 11:00 1017 - 0,6
Do, 25.07. 10:30 1017 - 0,5
Do, 25.07. 10:00 1017 - 0,5
Do, 25.07. 9:30 1018 - 0,3
Ortszeit Schneehöhe (cm)
Do, 25.07. 8:00 0
Do, 25.07. 2:00 0
Mi, 24.07. 20:00 0
Mi, 24.07. 14:00 0
Mi, 24.07. 8:00 0
Mi, 24.07. 2:00 0
Di, 23.07. 20:00 0
Di, 23.07. 14:00 0
Ortszeit Schneehöhe (cm)
Do, 25.07. 12:30 0
Do, 25.07. 12:20 0
Do, 25.07. 12:10 -
Do, 25.07. 12:00 0
Do, 25.07. 11:50 0
Do, 25.07. 11:40 -
Do, 25.07. 11:30 0
Do, 25.07. 11:00 0
Do, 25.07. 10:30 0
Do, 25.07. 10:00 0
Do, 25.07. 9:30 0
Link zu dieser Seite / Seite empfehlen

Das Wetter in ...